Time;durP1;ratioP1;P1;durP2;ratioP2;P2;SDS_P1;SDS_P2;PMS_P1;PMS_P2;Temp;Humidity;BMP_temperature;BMP_pressure;BME280_temperature;BME280_humidity;BME280_pressure;Samples;Min_cycle;Max_cycle;Signal;HPM_P1;HPM_P2
2022/07/16 00:02:30;;;;;;;7.05;3.90;;;;;;;16.78;61.35;102025.28;5028036;28;20044;-79
2022/07/16 00:04:56;;;;;;;6.45;3.55;;;;;;;16.80;61.11;102034.66;5040780;28;20034;-79
2022/07/16 00:07:21;;;;;;;8.02;4.05;;;;;;;16.80;61.31;102029.41;5022808;28;20104;-79
2022/07/16 00:09:47;;;;;;;6.18;3.63;;;;;;;16.80;62.55;102039.06;5012513;28;20527;-79
2022/07/16 00:12:12;;;;;;;5.85;3.40;;;;;;;16.71;62.64;102028.44;5023018;28;20055;-79
2022/07/16 00:14:37;;;;;;;6.43;3.80;;;;;;;16.51;62.46;101991.84;5024011;28;20022;-79
2022/07/16 00:17:03;;;;;;;6.97;3.80;;;;;;;16.73;62.08;102037.00;5025944;28;20659;-79
2022/07/16 00:19:29;;;;;;;7.00;3.72;;;;;;;16.72;62.64;102042.38;5017959;28;20045;-79
2022/07/16 00:21:56;;;;;;;5.72;3.67;;;;;;;16.58;62.98;102034.88;5024230;28;20064;-79
2022/07/16 00:24:23;;;;;;;6.68;3.90;;;;;;;16.64;62.71;102044.81;5025749;28;20029;-79
2022/07/16 00:26:48;;;;;;;7.20;3.90;;;;;;;16.75;62.54;102039.50;5017305;28;20021;-77
2022/07/16 00:29:15;;;;;;;9.55;3.88;;;;;;;16.74;62.75;102043.06;5022317;28;20048;-79
2022/07/16 00:31:41;;;;;;;6.22;3.80;;;;;;;16.77;62.49;102037.56;5026032;28;20041;-79
2022/07/16 00:34:07;;;;;;;7.40;4.28;;;;;;;16.62;63.15;102025.78;5022812;28;20600;-78
2022/07/16 00:36:34;;;;;;;8.23;4.20;;;;;;;16.67;63.23;102023.56;5025801;28;20036;-79
2022/07/16 00:39:00;;;;;;;6.50;4.10;;;;;;;16.58;63.53;102019.16;5021999;28;20026;-79
2022/07/16 00:41:26;;;;;;;6.95;4.20;;;;;;;16.63;63.34;102027.41;5038139;28;20040;-80
2022/07/16 00:43:56;;;;;;;6.53;4.07;;;;;;;16.53;63.71;102034.47;5023444;28;20018;-80
2022/07/16 00:46:21;;;;;;;6.70;3.92;;;;;;;16.62;63.14;102025.78;5019847;28;20033;-78
2022/07/16 00:48:47;;;;;;;5.93;4.20;;;;;;;16.66;63.44;102021.94;5026673;28;20021;-81
2022/07/16 00:51:15;;;;;;;6.53;3.92;;;;;;;16.64;63.62;102018.63;5027456;28;20037;-79
2022/07/16 00:53:41;;;;;;;6.88;4.78;;;;;;;16.57;63.61;102027.97;5023234;28;20037;-79
2022/07/16 00:56:12;;;;;;;7.82;4.43;;;;;;;16.42;64.04;102020.50;5023789;28;20025;-79
2022/07/16 00:58:39;;;;;;;6.82;4.43;;;;;;;16.55;63.48;102025.50;5026117;28;20029;-79
2022/07/16 01:01:05;;;;;;;7.18;4.45;;;;;;;16.53;63.48;102021.34;5020254;28;20041;-80
2022/07/16 01:03:32;;;;;;;8.65;4.10;;;;;;;16.62;63.28;102025.78;5023668;28;20512;-79
2022/07/16 01:05:58;;;;;;;8.48;4.80;;;;;;;16.51;63.27;102023.25;5024212;28;20033;-80
2022/07/16 01:08:24;;;;;;;6.15;4.32;;;;;;;16.43;63.86;102022.16;5018176;28;20030;-79
2022/07/16 01:10:50;;;;;;;6.38;3.80;;;;;;;16.45;63.88;102025.47;5018198;28;20478;-79
2022/07/16 01:13:17;;;;;;;8.77;4.40;;;;;;;16.52;63.19;102024.94;5021298;28;20067;-79
2022/07/16 01:15:43;;;;;;;6.28;3.90;;;;;;;16.51;62.70;102024.09;5023381;28;20010;-79
2022/07/16 01:18:08;;;;;;;6.90;4.22;;;;;;;16.36;63.03;102015.81;5020673;28;20075;-79
2022/07/16 01:20:34;;;;;;;5.40;3.97;;;;;;;16.42;64.12;102025.75;5023755;28;20044;-80
2022/07/16 01:22:59;;;;;;;6.35;4.22;;;;;;;16.50;63.87;102032.09;5017424;28;20040;-79
2022/07/16 01:25:25;;;;;;;7.82;4.53;;;;;;;16.49;64.04;102006.88;5022124;28;20056;-78
2022/07/16 01:27:51;;;;;;;6.40;4.10;;;;;;;16.45;65.11;102025.47;5023284;28;20029;-78
2022/07/16 01:30:16;;;;;;;6.75;4.25;;;;;;;16.48;64.31;102020.94;5014958;28;20063;-79
2022/07/16 01:32:42;;;;;;;7.18;3.90;;;;;;;16.44;64.33;102013.31;5022240;28;20040;-78
2022/07/16 01:35:07;;;;;;;6.68;4.55;;;;;;;16.43;64.65;102016.09;5023221;28;20417;-79
2022/07/16 01:37:33;;;;;;;9.35;4.43;;;;;;;16.41;64.66;102021.47;5009837;28;20036;-78
2022/07/16 01:39:58;;;;;;;6.97;4.40;;;;;;;16.42;65.21;102017.88;5010236;28;20370;-80
2022/07/16 01:42:24;;;;;;;6.97;4.30;;;;;;;16.46;64.72;102016.66;5013165;28;20041;-79
2022/07/16 01:44:49;;;;;;;8.50;4.45;;;;;;;16.44;65.09;102018.56;5018849;28;20022;-79
2022/07/16 01:47:14;;;;;;;8.73;5.03;;;;;;;16.50;65.23;102019.00;5019105;28;20404;-77
2022/07/16 01:49:40;;;;;;;7.10;4.53;;;;;;;16.44;65.29;102026.41;5022954;28;20025;-79
2022/07/16 01:52:05;;;;;;;7.43;4.45;;;;;;;16.55;65.18;102024.66;5023026;28;20056;-79
2022/07/16 01:54:31;;;;;;;9.43;4.78;;;;;;;16.44;65.93;102021.19;5022719;28;20470;-79
2022/07/16 01:56:56;;;;;;;7.97;4.63;;;;;;;16.56;65.45;102026.31;5025171;28;20496;-79
2022/07/16 01:59:21;;;;;;;7.00;4.55;;;;;;;16.47;65.37;102009.63;5018392;28;20443;-79
2022/07/16 02:01:47;;;;;;;7.88;4.78;;;;;;;16.54;65.54;102000.25;5023371;28;20481;-77
2022/07/16 02:04:12;;;;;;;7.75;4.68;;;;;;;16.55;65.53;102014.19;5022003;28;20491;-80
2022/07/16 02:06:37;;;;;;;6.95;4.63;;;;;;;16.53;65.55;102000.41;5025084;28;20033;-79
2022/07/16 02:09:03;;;;;;;8.77;4.75;;;;;;;16.54;65.63;102017.78;5021104;28;20043;-79
2022/07/16 02:11:28;;;;;;;11.43;5.10;;;;;;;16.43;65.70;102001.22;5022331;28;20481;-79
2022/07/16 02:13:53;;;;;;;9.18;4.70;;;;;;;16.43;65.85;102008.25;5020675;28;20618;-78
2022/07/16 02:16:19;;;;;;;7.40;4.63;;;;;;;16.38;66.14;102013.03;5026822;28;20032;-79
2022/07/16 02:18:44;;;;;;;8.60;5.10;;;;;;;16.37;66.63;102012.22;5024653;28;20021;-79
2022/07/16 02:21:09;;;;;;;8.25;5.35;;;;;;;16.49;66.10;102018.16;5021754;28;20469;-78
2022/07/16 02:23:35;;;;;;;7.10;4.78;;;;;;;16.52;65.96;102022.31;5023147;28;20029;-80
2022/07/16 02:26:00;;;;;;;8.63;5.28;;;;;;;16.31;66.46;102007.53;5025960;28;20060;-78
2022/07/16 02:28:25;;;;;;;8.90;5.07;;;;;;;16.43;66.09;102011.69;5020845;28;20507;-78
2022/07/16 02:30:51;;;;;;;7.82;5.20;;;;;;;16.37;66.27;102014.84;5022932;28;20017;-78
2022/07/16 02:33:19;;;;;;;7.75;4.78;;;;;;;16.41;65.99;102011.00;5016343;28;20030;-80
2022/07/16 02:35:45;;;;;;;7.68;4.90;;;;;;;16.45;65.62;101993.22;5017834;28;20017;-80
2022/07/16 02:38:12;;;;;;;10.02;5.07;;;;;;;16.48;66.22;102013.06;5022509;28;20035;-79
2022/07/16 02:40:38;;;;;;;7.25;5.40;;;;;;;16.46;66.17;102008.81;5016604;28;20392;-80
2022/07/16 02:43:06;;;;;;;9.63;5.43;;;;;;;16.41;65.97;101994.47;5022458;28;20017;-79
2022/07/16 02:45:33;;;;;;;10.40;5.50;;;;;;;16.37;66.24;102001.75;5018709;28;20064;-79
2022/07/16 02:47:59;;;;;;;8.02;5.63;;;;;;;16.43;66.17;102006.44;5024813;28;20272;-81
2022/07/16 02:50:25;;;;;;;7.57;5.50;;;;;;;16.39;66.61;101993.75;5017547;28;20036;-78
2022/07/16 02:52:51;;;;;;;7.30;5.25;;;;;;;16.38;66.46;102000.78;5024457;28;20381;-79
2022/07/16 02:55:17;;;;;;;8.27;5.55;;;;;;;16.50;66.85;102006.72;5020924;28;20033;-80
2022/07/16 02:57:42;;;;;;;6.43;5.18;;;;;;;16.38;67.29;101998.16;5028864;28;20018;-79
2022/07/16 03:00:09;;;;;;;7.63;5.50;;;;;;;16.42;67.12;102015.25;5027403;28;20462;-79
2022/07/16 03:02:35;;;;;;;9.82;5.78;;;;;;;16.45;66.95;102004.50;5027141;28;20033;-79
2022/07/16 03:05:01;;;;;;;8.45;5.38;;;;;;;16.50;67.53;102014.59;5028061;28;20028;-79
2022/07/16 03:07:27;;;;;;;8.02;5.20;;;;;;;16.48;67.37;102003.44;5026001;28;20061;-79
2022/07/16 03:09:53;;;;;;;8.20;5.20;;;;;;;16.38;68.26;102008.63;5026850;28;20033;-79
2022/07/16 03:12:18;;;;;;;6.32;4.97;;;;;;;16.40;68.16;102001.50;5025649;28;20207;-78
2022/07/16 03:14:44;;;;;;;8.80;5.53;;;;;;;16.49;67.97;102017.34;5026064;28;20487;-79
2022/07/16 03:17:10;;;;;;;7.45;5.30;;;;;;;16.49;67.90;102014.72;5020872;28;20794;-79
2022/07/16 03:19:35;;;;;;;9.25;5.25;;;;;;;16.53;67.53;102016.94;5023865;28;20151;-80
2022/07/16 03:22:02;;;;;;;7.85;5.10;;;;;;;16.35;69.06;102021.19;5021902;28;20057;-79
2022/07/16 03:24:28;;;;;;;8.32;5.15;;;;;;;16.35;70.16;102029.03;5025955;28;20017;-79
2022/07/16 03:26:53;;;;;;;7.03;4.90;;;;;;;16.48;68.51;102028.78;5025189;28;20025;-79
2022/07/16 03:29:19;;;;;;;8.90;5.38;;;;;;;16.41;69.62;102033.75;5025348;28;20092;-79
2022/07/16 03:31:44;;;;;;;7.68;5.47;;;;;;;16.33;69.77;102026.53;5025081;28;20461;-79
2022/07/16 03:34:09;;;;;;;9.40;5.88;;;;;;;16.36;70.21;102044.59;5024085;28;20561;-79
2022/07/16 03:36:35;;;;;;;7.65;5.60;;;;;;;16.30;70.69;102047.75;5016284;28;20032;-78
2022/07/16 03:39:06;;;;;;;9.65;6.05;;;;;;;16.24;70.69;102040.44;5017272;28;20113;-78
2022/07/16 03:41:34;;;;;;;8.85;5.90;;;;;;;16.20;71.07;102046.88;5020545;28;20537;-79
2022/07/16 03:44:00;;;;;;;7.88;5.47;;;;;;;16.17;71.03;102031.44;5020563;28;20009;-78
2022/07/16 03:46:25;;;;;;;8.98;5.97;;;;;;;16.22;71.31;102051.97;5021253;28;20033;-79
2022/07/16 03:48:50;;;;;;;9.93;6.53;;;;;;;16.19;72.19;102050.47;5019505;28;20380;-78
2022/07/16 03:51:16;;;;;;;9.93;6.03;;;;;;;16.29;71.81;102061.81;5021364;28;20420;-79
2022/07/16 03:53:42;;;;;;;9.10;6.10;;;;;;;16.22;71.59;102041.50;5022065;28;20071;-81
2022/07/16 03:56:08;;;;;;;8.90;6.53;;;;;;;16.00;72.62;102034.66;5020960;28;20522;-78
2022/07/16 03:58:33;;;;;;;8.40;6.47;;;;;;;16.15;73.21;102056.91;5025544;28;20025;-79
2022/07/16 04:00:59;;;;;;;8.10;6.85;;;;;;;16.11;72.88;102048.50;5023024;28;20038;-78
2022/07/16 04:03:24;;;;;;;9.55;6.68;;;;;;;16.05;73.83;102062.09;5024722;28;21188;-79
2022/07/16 04:05:50;;;;;;;8.70;7.05;;;;;;;15.95;74.26;102060.41;5026633;28;20029;-79
2022/07/16 04:08:16;;;;;;;9.50;7.05;;;;;;;15.82;74.56;102040.50;5022255;28;20507;-79
2022/07/16 04:10:42;;;;;;;12.30;7.25;;;;;;;15.88;74.36;102068.75;5024140;28;20067;-80
2022/07/16 04:13:07;;;;;;;10.18;7.10;;;;;;;15.90;74.72;102055.56;5021840;28;20080;-78
2022/07/16 04:15:32;;;;;;;10.48;7.32;;;;;;;16.04;74.42;102083.19;5024300;28;20484;-79
2022/07/16 04:17:58;;;;;;;11.35;7.53;;;;;;;15.93;75.00;102065.75;5022692;28;20534;-79
2022/07/16 04:20:23;;;;;;;11.90;7.47;;;;;;;15.92;75.47;102059.69;5025686;28;20036;-80
2022/07/16 04:22:49;;;;;;;10.02;7.82;;;;;;;15.89;76.22;102069.63;5027205;28;20028;-79
2022/07/16 04:25:14;;;;;;;10.15;8.00;;;;;;;15.81;77.21;102072.84;5016657;28;20429;-77
2022/07/16 04:27:43;;;;;;;10.60;7.70;;;;;;;15.89;77.06;102075.69;5019965;28;20064;-79
2022/07/16 04:30:10;;;;;;;10.77;8.05;;;;;;;15.90;76.99;102082.56;5041976;28;20045;-80
2022/07/16 04:32:37;;;;;;;11.15;8.35;;;;;;;15.79;77.59;102074.78;5022753;28;20533;-80
2022/07/16 04:35:02;;;;;;;9.65;8.15;;;;;;;15.79;78.19;102080.00;5023642;28;20075;-80
2022/07/16 04:37:28;;;;;;;11.93;8.25;;;;;;;15.89;78.14;102091.38;5024697;28;20036;-79
2022/07/16 04:39:53;;;;;;;11.52;8.10;;;;;;;15.89;77.90;102099.22;5025487;28;20065;-79
2022/07/16 04:42:18;;;;;;;11.20;8.20;;;;;;;15.83;78.38;102097.13;5024904;28;20033;-77
2022/07/16 04:44:44;;;;;;;11.00;8.10;;;;;;;15.84;78.57;102098.78;5021399;28;20025;-79
2022/07/16 04:47:10;;;;;;;10.15;7.47;;;;;;;15.96;78.40;102112.63;5011994;28;20034;-80
2022/07/16 04:49:35;;;;;;;9.45;7.07;;;;;;;15.83;78.80;102096.28;5021721;28;20448;-80
2022/07/16 04:52:01;;;;;;;12.00;7.05;;;;;;;15.85;79.29;102110.06;5026177;28;20032;-78
2022/07/16 04:54:26;;;;;;;8.68;6.95;;;;;;;15.90;78.92;102103.50;5025894;28;20707;-80
2022/07/16 04:56:52;;;;;;;9.00;6.63;;;;;;;15.84;79.80;102109.25;5025366;28;20025;-79
2022/07/16 04:59:17;;;;;;;9.50;7.13;;;;;;;15.87;80.74;102119.44;5022145;28;20079;-79
2022/07/16 05:01:43;;;;;;;11.32;6.60;;;;;;;15.95;80.35;102120.59;5023171;28;21383;-80
2022/07/16 05:04:08;;;;;;;9.25;6.63;;;;;;;15.86;80.46;102106.50;5025430;28;20022;-78
2022/07/16 05:06:33;;;;;;;9.32;6.43;;;;;;;15.90;80.61;102119.19;5023006;28;20048;-79
2022/07/16 05:09:01;;;;;;;10.23;7.00;;;;;;;15.92;80.68;102121.66;5023186;28;20029;-79
2022/07/16 05:11:27;;;;;;;8.93;6.68;;;;;;;16.02;80.34;102129.59;5018913;28;20029;-79
2022/07/16 05:13:55;;;;;;;10.20;6.75;;;;;;;16.05;80.69;102126.69;5023696;28;20482;-77
2022/07/16 05:16:22;;;;;;;9.05;5.53;;;;;;;16.10;80.97;102124.53;5013080;28;20113;-79
2022/07/16 05:18:47;;;;;;;10.88;6.03;;;;;;;16.12;81.22;102122.63;5023815;28;20108;-79
2022/07/16 05:21:13;;;;;;;9.80;6.20;;;;;;;16.10;80.54;102108.81;5020816;28;20108;-79
2022/07/16 05:23:38;;;;;;;8.90;5.57;;;;;;;16.22;80.81;102123.47;5023248;28;20064;-79
2022/07/16 05:26:04;;;;;;;8.80;4.80;;;;;;;16.19;80.39;102118.53;5017370;28;20032;-79
2022/07/16 05:28:29;;;;;;;9.27;4.90;;;;;;;16.23;80.41;102121.69;5017866;28;20103;-78
2022/07/16 05:30:55;;;;;;;8.07;5.00;;;;;;;16.33;80.63;102135.66;5022192;28;20461;-78
2022/07/16 05:33:20;;;;;;;7.07;4.05;;;;;;;16.26;79.37;102135.38;5013374;28;20037;-80
2022/07/16 05:35:46;;;;;;;6.95;3.70;;;;;;;16.33;79.44;102141.72;5011290;28;20028;-80
2022/07/16 05:38:11;;;;;;;6.80;4.13;;;;;;;16.34;79.71;102143.38;5024812;28;20035;-79
2022/07/16 05:40:37;;;;;;;6.38;3.67;;;;;;;16.36;79.09;102151.13;5021845;28;20021;-79
2022/07/16 05:43:02;;;;;;;7.78;4.22;;;;;;;16.41;79.74;102155.03;5025248;28;20021;-79
2022/07/16 05:45:28;;;;;;;6.63;3.55;;;;;;;16.44;78.42;102143.44;5022810;28;20120;-78
2022/07/16 05:47:54;;;;;;;7.03;3.08;;;;;;;16.39;77.65;102156.91;5014531;28;20095;-79
2022/07/16 05:50:19;;;;;;;6.57;2.75;;;;;;;16.34;77.20;102148.63;5023808;28;20032;-79
2022/07/16 05:52:44;;;;;;;7.22;2.80;;;;;;;16.38;77.85;102155.25;5012853;28;20025;-79
2022/07/16 05:55:10;;;;;;;5.55;2.85;;;;;;;16.52;78.54;102161.13;5010625;28;20390;-80
2022/07/16 05:57:35;;;;;;;4.50;2.40;;;;;;;16.62;77.25;102161.97;5021251;28;20037;-79
2022/07/16 06:00:02;;;;;;;5.47;2.50;;;;;;;16.61;76.39;102155.09;5024337;28;20028;-79
2022/07/16 06:02:27;;;;;;;5.47;2.30;;;;;;;16.65;76.30;102159.13;5019162;28;20072;-80
2022/07/16 06:04:52;;;;;;;6.07;2.38;;;;;;;16.71;76.37;102150.75;5025073;28;20121;-78
2022/07/16 06:07:18;;;;;;;6.90;2.40;;;;;;;16.78;76.11;102159.72;5022414;28;20473;-78
2022/07/16 06:09:43;;;;;;;4.47;1.90;;;;;;;16.91;74.98;102175.22;5021555;28;20042;-79
2022/07/16 06:12:08;;;;;;;7.32;2.30;;;;;;;16.92;74.57;102177.72;5036019;28;20099;-78
2022/07/16 06:14:34;;;;;;;5.15;2.30;;;;;;;17.01;75.40;102175.25;5009184;28;20033;-78
2022/07/16 06:16:59;;;;;;;6.78;2.20;;;;;;;17.00;74.46;102166.56;5012249;28;20026;-79
2022/07/16 06:19:24;;;;;;;5.72;1.90;;;;;;;16.99;73.73;102176.22;5011806;28;20053;-78
2022/07/16 06:21:50;;;;;;;6.80;2.08;;;;;;;16.98;72.22;102177.19;5013940;28;20057;-79
2022/07/16 06:24:15;;;;;;;4.32;1.73;;;;;;;16.93;72.47;102166.28;5011836;28;20060;-78
2022/07/16 06:26:49;;;;;;;5.80;1.70;;;;;;;17.02;72.40;102169.03;5017909;28;20379;-79
2022/07/16 06:29:16;;;;;;;5.80;1.90;;;;;;;17.16;71.70;102190.47;5013486;28;20037;-78
2022/07/16 06:31:42;;;;;;;4.88;1.73;;;;;;;17.15;70.75;102188.00;5023441;28;20030;-78
2022/07/16 06:34:07;;;;;;;4.68;1.75;;;;;;;17.17;70.82;102184.25;5023299;28;20029;-78
2022/07/16 06:36:32;;;;;;;4.50;1.65;;;;;;;17.23;69.58;102194.22;5021948;28;20036;-79
2022/07/16 06:38:58;;;;;;;3.70;1.65;;;;;;;17.32;70.22;102195.19;5026598;28;20379;-79
2022/07/16 06:41:23;;;;;;;5.28;1.85;;;;;;;17.34;71.13;102197.69;5021030;28;20439;-79
2022/07/16 06:43:49;;;;;;;5.43;1.70;;;;;;;17.30;68.73;102199.72;5025331;28;20406;-79
2022/07/16 06:46:14;;;;;;;5.18;1.73;;;;;;;17.19;66.04;102197.22;5025611;28;20047;-78
2022/07/16 06:48:40;;;;;;;6.10;1.80;;;;;;;17.13;65.86;102197.75;5024734;28;20477;-79
2022/07/16 06:51:05;;;;;;;5.88;1.70;;;;;;;17.14;65.20;102210.72;5025144;28;20492;-78
2022/07/16 06:53:31;;;;;;;5.35;1.60;;;;;;;17.27;65.68;102214.94;5025642;28;20452;-79
2022/07/16 06:55:56;;;;;;;4.57;1.60;;;;;;;17.22;65.35;102217.94;5027245;28;20112;-79
2022/07/16 06:58:21;;;;;;;6.18;1.70;;;;;;;17.21;64.54;102213.66;5024675;28;20481;-78
2022/07/16 07:00:47;;;;;;;8.27;1.92;;;;;;;17.32;65.14;102218.81;5026279;28;20041;-79
2022/07/16 07:03:12;;;;;;;4.40;1.40;;;;;;;17.37;65.85;102216.56;5020505;28;20370;-78
2022/07/16 07:05:38;;;;;;;5.68;1.80;;;;;;;17.51;66.03;102234.56;5026231;28;20029;-78
2022/07/16 07:08:04;;;;;;;4.30;1.52;;;;;;;17.49;63.31;102241.75;5027125;28;20036;-78
2022/07/16 07:10:30;;;;;;;5.70;1.52;;;;;;;17.52;63.42;102236.22;5016099;28;20542;-78
2022/07/16 07:12:56;;;;;;;6.03;1.60;;;;;;;17.53;63.35;102242.28;5016943;28;20124;-79
2022/07/16 07:15:21;;;;;;;4.70;1.50;;;;;;;17.50;61.49;102246.03;5019336;28;20040;-78
2022/07/16 07:17:46;;;;;;;6.32;1.55;;;;;;;17.57;61.75;102242.84;5027182;28;20382;-78
2022/07/16 07:20:12;;;;;;;4.53;1.42;;;;;;;17.55;60.75;102250.00;5013781;28;20026;-78
2022/07/16 07:22:38;;;;;;;3.88;1.52;;;;;;;17.56;61.00;102252.53;5022303;28;20397;-78
2022/07/16 07:25:04;;;;;;;5.13;1.52;;;;;;;17.51;60.48;102241.59;5023075;28;20033;-79
2022/07/16 07:27:29;;;;;;;4.03;1.60;;;;;;;17.48;60.18;102250.56;5020638;28;20381;-77
2022/07/16 07:29:54;;;;;;;4.43;1.30;;;;;;;17.66;60.92;102255.13;5025717;28;20037;-77
2022/07/16 07:32:20;;;;;;;3.67;1.42;;;;;;;17.64;59.78;102265.78;5026378;28;20128;-78
2022/07/16 07:34:45;;;;;;;4.68;1.50;;;;;;;17.59;59.71;102261.91;5022905;28;20022;-78
2022/07/16 07:37:10;;;;;;;6.10;1.50;;;;;;;17.48;59.42;102245.31;5010640;28;20030;-79
2022/07/16 07:39:36;;;;;;;5.57;1.40;;;;;;;17.67;60.74;102256.81;5022970;28;20365;-78
2022/07/16 07:42:02;;;;;;;5.22;1.58;;;;;;;17.66;60.13;102263.00;5010719;28;20030;-78
2022/07/16 07:44:27;;;;;;;2.85;1.20;;;;;;;17.80;60.42;102259.22;5023582;28;20029;-78
2022/07/16 07:46:53;;;;;;;5.00;1.30;;;;;;;17.87;60.79;102261.13;5021545;28;20095;-78
2022/07/16 07:49:18;;;;;;;3.63;1.15;;;;;;;17.90;59.15;102266.13;5026459;28;20064;-79
2022/07/16 07:51:43;;;;;;;3.85;1.30;;;;;;;17.98;58.79;102274.13;5022004;28;20022;-78
2022/07/16 07:54:09;;;;;;;4.93;1.20;;;;;;;18.02;57.51;102270.25;5021983;28;20069;-78
2022/07/16 07:56:34;;;;;;;5.65;1.30;;;;;;;18.02;56.37;102275.50;5019583;28;20033;-78
2022/07/16 07:58:59;;;;;;;4.70;1.40;;;;;;;17.98;56.33;102270.66;5019353;28;20060;-79
2022/07/16 08:01:25;;;;;;;4.57;1.33;;;;;;;18.00;55.68;102272.19;5021807;28;20489;-78
2022/07/16 08:03:50;;;;;;;3.90;1.30;;;;;;;18.12;56.00;102280.78;5025203;28;20525;-79
2022/07/16 08:06:15;;;;;;;3.58;1.20;;;;;;;18.24;57.51;102273.56;5010494;28;20034;-79
2022/07/16 08:08:41;;;;;;;3.80;1.30;;;;;;;18.38;57.86;102270.50;5020540;28;20049;-78
2022/07/16 08:11:06;;;;;;;3.88;1.45;;;;;;;18.43;55.65;102273.53;5028034;28;20384;-78
2022/07/16 08:13:33;;;;;;;3.53;1.20;;;;;;;18.58;56.85;102282.63;5026586;28;20068;-79
2022/07/16 08:15:58;;;;;;;4.20;1.27;;;;;;;18.73;57.01;102274.31;5021868;28;20025;-78
2022/07/16 08:18:23;;;;;;;5.70;1.52;;;;;;;18.79;55.98;102281.63;5021253;28;20037;-78
2022/07/16 08:20:49;;;;;;;5.93;1.42;;;;;;;18.88;55.55;102283.41;5025911;28;20067;-78
2022/07/16 08:25:44;;;;;;;5.07;1.40;;;;;;;19.06;56.30;102292.19;5023083;28;20093;-78
2022/07/16 08:25:59;;;;;;;4.60;1.40;;;;;;;19.12;54.60;102300.47;5022561;28;20033;-78
2022/07/16 08:28:25;;;;;;;5.25;1.45;;;;;;;19.20;54.56;102297.94;5025513;28;20025;-78
2022/07/16 08:30:50;;;;;;;3.60;1.30;;;;;;;19.31;56.12;102301.19;5020825;28;20402;-78
2022/07/16 08:33:15;;;;;;;5.50;1.40;;;;;;;19.29;54.33;102303.16;5008537;28;20069;-78
2022/07/16 08:35:41;;;;;;;5.07;1.40;;;;;;;19.28;54.02;102311.19;5015441;28;20033;-78
2022/07/16 08:38:06;;;;;;;3.88;1.20;;;;;;;19.26;53.48;102313.13;5008502;28;20100;-78
2022/07/16 08:40:33;;;;;;;4.93;1.30;;;;;;;19.20;53.09;102303.19;5015023;28;20033;-78
2022/07/16 08:42:58;;;;;;;5.43;1.40;;;;;;;19.22;53.10;102319.69;5025747;28;20124;-78
2022/07/16 08:45:24;;;;;;;4.35;1.70;;;;;;;19.41;54.45;102332.72;5023653;28;20109;-77
2022/07/16 08:47:52;;;;;;;4.72;1.42;;;;;;;19.33;54.67;102335.28;5025562;28;20420;-78
2022/07/16 08:50:18;;;;;;;5.22;1.30;;;;;;;19.36;55.12;102329.69;5024500;28;20257;-77
2022/07/16 08:52:49;;;;;;;5.15;1.30;;;;;;;19.25;52.80;102338.59;5025587;28;20033;-78
2022/07/16 08:55:14;;;;;;;3.78;1.42;;;;;;;19.19;53.26;102328.66;5020324;28;20120;-77
2022/07/16 08:57:41;;;;;;;5.00;1.40;;;;;;;19.19;51.97;102338.38;5025495;28;20128;-77
2022/07/16 09:00:11;;;;;;;3.97;1.20;;;;;;;19.32;53.36;102341.47;5026940;28;20029;-76
2022/07/16 09:02:37;;;;;;;5.70;1.52;;;;;;;19.42;52.39;102339.63;5014059;28;20033;-77
2022/07/16 09:05:03;;;;;;;5.80;1.30;;;;;;;19.47;50.76;102353.19;5023900;28;20014;-77
2022/07/16 09:07:29;;;;;;;4.25;1.30;;;;;;;19.49;50.47;102347.78;5021453;28;20512;-77
2022/07/16 09:09:55;;;;;;;5.05;1.52;;;;;;;19.58;52.41;102350.41;5012474;28;20026;-77
2022/07/16 09:12:43;;;;;;;4.43;1.30;;;;;;;19.76;53.40;102353.06;5016386;28;20532;-77
2022/07/16 09:15:26;;;;;;;;;;;;;;;19.92;52.57;102352.41;5013830;28;20494;-77
2022/07/16 09:18:10;;;;;;;3.53;1.27;;;;;;;20.04;52.18;102351.22;5019712;28;19917;-77
2022/07/16 09:20:43;;;;;;;3.53;1.10;;;;;;;19.96;52.02;102364.31;5015217;28;20427;-78
2022/07/16 09:23:23;;;;;;;3.35;1.23;;;;;;;19.95;49.95;102360.00;5020990;28;20017;-78
2022/07/16 09:26:00;;;;;;;3.47;1.48;;;;;;;19.91;50.05;102369.19;5020458;28;20040;-78
2022/07/16 09:28:38;;;;;;;4.45;1.27;;;;;;;19.92;50.48;102373.47;5015563;28;20060;-77
2022/07/16 09:31:04;;;;;;;3.30;1.20;;;;;;;20.02;49.55;102368.16;5020145;28;20037;-76
2022/07/16 09:33:30;;;;;;;4.45;1.40;;;;;;;19.97;49.76;102360.69;5018655;28;20017;-77
2022/07/16 09:36:12;;;;;;;3.70;1.30;;;;;;;20.03;49.66;102378.53;5024967;28;20029;-77
2022/07/16 09:38:48;;;;;;;3.40;1.33;;;;;;;20.08;50.69;102373.66;5010628;28;20033;-78
2022/07/16 09:41:14;;;;;;;5.63;1.27;;;;;;;20.15;49.63;102364.16;5012293;28;20530;-76
2022/07/16 09:43:45;;;;;;;3.80;1.10;;;;;;;20.24;49.19;102372.13;5013286;28;20076;-78
2022/07/16 09:46:21;;;;;;;4.60;1.20;;;;;;;20.32;49.74;102375.69;5023085;28;20033;-78
2022/07/16 09:48:48;;;;;;;2.42;1.15;;;;;;;20.36;48.38;102371.75;5022882;28;20022;-78
2022/07/16 09:51:21;;;;;;;3.42;1.20;;;;;;;20.48;48.29;102375.03;5024061;28;20025;-77
2022/07/16 09:53:51;;;;;;;3.95;1.30;;;;;;;20.44;48.62;102368.34;5021287;28;20029;-78
2022/07/16 09:56:19;;;;;;;4.18;1.27;;;;;;;20.36;47.61;102386.75;5016775;28;20069;-76
2022/07/16 09:58:47;;;;;;;3.85;1.17;;;;;;;20.56;48.59;102377.72;5022483;28;20071;-78
2022/07/16 10:01:13;;;;;;;5.25;1.10;;;;;;;20.58;48.24;102385.47;5017920;28;20493;-78
2022/07/16 10:03:38;;;;;;;4.00;1.42;;;;;;;20.43;46.52;102387.78;5016829;28;20018;-73
2022/07/16 10:06:03;;;;;;;3.50;1.33;;;;;;;20.39;47.25;102386.44;5020972;28;20083;-73
2022/07/16 10:08:31;;;;;;;4.00;1.20;;;;;;;20.39;47.52;102383.78;5021790;28;20386;-73
2022/07/16 10:10:57;;;;;;;3.45;1.40;;;;;;;20.45;45.16;102379.72;5018054;28;20036;-73
2022/07/16 10:13:26;;;;;;;2.72;1.02;;;;;;;20.52;48.00;102392.16;5012642;28;20050;-74
2022/07/16 10:15:51;;;;;;;3.80;1.20;;;;;;;20.44;48.57;102389.44;5019259;28;20041;-75
2022/07/16 10:18:34;;;;;;;4.60;1.20;;;;;;;20.31;47.21;102394.28;5028603;28;20037;-75
2022/07/16 10:21:08;;;;;;;3.90;1.30;;;;;;;20.28;46.69;102397.19;5026837;28;20033;-74
2022/07/16 10:23:35;;;;;;;2.72;0.98;;;;;;;20.07;46.01;102403.59;5028703;28;20060;-74
2022/07/16 10:26:08;;;;;;;5.50;1.47;;;;;;;20.25;46.75;102410.69;5023739;28;20065;-74
2022/07/16 10:28:38;;;;;;;3.45;1.15;;;;;;;20.62;49.57;102414.00;5023894;28;20029;-73
2022/07/16 10:31:39;;;;;;;2.92;1.00;;;;;;;20.53;47.77;102407.03;5014719;28;20018;-73
2022/07/16 10:34:14;;;;;;;3.33;1.30;;;;;;;20.42;47.16;102415.13;5023309;28;20033;-72
2022/07/16 10:36:54;;;;;;;4.30;1.23;;;;;;;20.66;48.58;102409.28;5021275;28;20029;-72
2022/07/16 10:39:22;;;;;;;3.00;1.10;;;;;;;20.47;44.90;102410.25;5018314;28;20033;-73
2022/07/16 10:41:55;;;;;;;4.35;1.30;;;;;;;20.64;47.39;102412.06;5011242;28;20482;-73
2022/07/16 10:44:23;;;;;;;4.78;1.00;;;;;;;20.54;46.20;102411.31;5011862;28;20079;-78
2022/07/16 10:47:03;;;;;;;3.83;1.33;;;;;;;20.56;46.46;102425.16;5027997;28;20377;-78
2022/07/16 10:49:30;;;;;;;3.28;1.17;;;;;;;20.62;45.21;102416.63;5009702;28;20029;-77
2022/07/16 10:51:59;;;;;;;3.17;1.05;;;;;;;20.78;46.36;102428.31;5021333;28;20064;-78
2022/07/16 10:54:29;;;;;;;4.28;1.30;;;;;;;20.66;44.31;102428.53;5013931;28;20457;-78
2022/07/16 10:56:56;;;;;;;4.05;1.23;;;;;;;20.45;44.46;102422.72;5022292;28;20029;-79
2022/07/16 10:59:27;;;;;;;2.45;1.00;;;;;;;20.64;44.64;102427.88;5021138;28;20405;-78
2022/07/16 11:01:55;;;;;;;2.65;1.20;;;;;;;20.49;44.52;102426.75;5014054;28;20076;-78
2022/07/16 11:04:54;;;;;;;4.87;1.20;;;;;;;20.60;45.76;102429.16;5026676;28;20031;-78
2022/07/16 11:07:22;;;;;;;3.03;1.02;;;;;;;20.44;45.99;102442.16;5013814;28;20291;-78
2022/07/16 11:09:50;;;;;;;3.40;1.05;;;;;;;20.61;45.92;102440.53;5027303;28;20029;-78
2022/07/16 11:12:31;;;;;;;5.30;1.20;;;;;;;20.83;46.75;102437.41;5013344;28;20045;-77
2022/07/16 11:14:59;;;;;;;7.10;1.20;;;;;;;20.92;45.34;102430.38;5025893;28;20478;-78
2022/07/16 11:17:28;;;;;;;3.28;1.10;;;;;;;21.16;44.63;102433.19;5015972;28;20029;-78
2022/07/16 11:19:56;;;;;;;4.38;1.38;;;;;;;20.99;44.65;102442.00;5017331;28;20071;-78
2022/07/16 11:22:29;;;;;;;;;;;;;;;21.23;44.97;102437.84;5020262;28;20041;-77
2022/07/16 11:25:01;;;;;;;3.25;1.10;;;;;;;21.27;45.28;102433.91;5021887;28;19917;-77